Route Details

Aircraft Information
Group: North America Fleet
Types: B738, B752, B762, B763
Route Data
Distance: 528nm
Duration: 0h 00m
Origin METAR: KILN 141854Z AUTO 26014G20KT 9SM FEW044 32/21 A3007 RMK AO2 SLP167 T03220211
Dest. METAR: KBDL 141751Z 00000KT 10SM FEW065 FEW200 33/17 A2997 RMK AO2 SLP148 T03280167 10333 20250 58024
Freight Data
(for Jul 14, 2024)
Load Factor:
53%
Manifested Cargo: 46,689lbs
Financial History
Total Freight: 78,727lbs
Average Load: 0lbs/flt
Fuel Used: 17,832lbs
Avg. Fuel Used: 0lbs/flt
Fuel Expense: $7,846
Avg. Fuel Expense: $0
Avg. Fuel Cost: $0/lbs
Total Gross Income: $200,754
Pilot Pay: $239
Total Expenses: $39,046
Total Revenue: $153,319
Average Revenue: $0

Capitol Logistics 480




KILN
Wilmington Air Park
Wilmington, Ohio
KBDL
Bradley International Airport
Windsor Locks, Connecticut

Activity Log

Date Flight Route Aircraft Duration
03/12/2023 CPX480 DCT APE DCT EWC DCT SLT DCT HNK DCT STELA STELA1 B763 1h 33m